Time;durP1;ratioP1;P1;durP2;ratioP2;P2;SDS_P1;SDS_P2;PMS_P1;PMS_P2;Temp;Humidity;BMP_temperature;BMP_pressure;BME280_temperature;BME280_humidity;BME280_pressure;Samples;Min_cycle;Max_cycle;Signal;HPM_P1;HPM_P2
2022/05/13 00:01:14;;;;;;;3.20;2.40;;;;;;;;;;12542154;28;20047;-77
2022/05/13 00:07:16;;;;;;;;;;;;;;;;;;12543685;28;20052;-77
2022/05/13 00:13:18;;;;;;;3.35;2.20;;;;;;;;;;12543519;28;19920;-77
2022/05/13 00:19:19;;;;;;;3.35;2.40;;;;;;;;;;12541603;28;20041;-77
2022/05/13 00:25:26;;;;;;;5.05;2.47;;;;;;;;;;12532116;28;20052;-76
2022/05/13 00:31:28;;;;;;;2.67;2.33;;;;;;;;;;12552307;28;20477;-76
2022/05/13 00:37:30;;;;;;;4.32;2.60;;;;;;;;;;12552236;28;20029;-76
2022/05/13 00:43:40;;;;;;;4.18;2.13;;;;;;;;;;12551713;28;20036;-77
2022/05/13 00:49:42;;;;;;;3.58;3.10;;;;;;;;;;12550001;28;20393;-76
2022/05/13 00:55:45;;;;;;;3.53;2.42;;;;;;;;;;12549750;28;20056;-77
2022/05/13 01:01:48;;;;;;;;;;;;;;;;;;12551317;28;20041;-78
2022/05/13 01:07:50;;;;;;;3.88;3.00;;;;;;;;;;12549511;28;19928;-77
2022/05/13 01:13:56;;;;;;;2.88;2.67;;;;;;;;;;12548648;28;20047;-77
2022/05/13 01:19:58;;;;;;;2.45;2.25;;;;;;;;;;12548562;28;20043;-76
2022/05/13 01:26:02;;;;;;;3.40;3.10;;;;;;;;;;12549808;28;20383;-77
2022/05/13 01:32:04;;;;;;;3.97;2.92;;;;;;;;;;12549304;28;20143;-77
2022/05/13 01:38:06;;;;;;;2.50;2.25;;;;;;;;;;12549642;28;20037;-77
2022/05/13 01:44:07;;;;;;;5.32;3.80;;;;;;;;;;12547347;28;20048;-77
2022/05/13 01:50:09;;;;;;;4.73;3.90;;;;;;;;;;12548284;28;20037;-77
2022/05/13 01:56:11;;;;;;;3.88;3.55;;;;;;;;;;12548125;28;20529;-77
2022/05/13 02:02:13;;;;;;;3.90;3.45;;;;;;;;;;12546551;28;20048;-77
2022/05/13 02:08:16;;;;;;;4.13;3.67;;;;;;;;;;12546139;28;20045;-76
2022/05/13 02:14:18;;;;;;;4.90;4.40;;;;;;;;;;12546529;28;20044;-76
2022/05/13 02:20:19;;;;;;;;;;;;;;;;;;12546138;28;20052;-77
2022/05/13 02:26:21;;;;;;;6.20;5.30;;;;;;;;;;12545423;28;19917;-77
2022/05/13 02:32:23;;;;;;;5.75;4.80;;;;;;;;;;12528530;28;20033;-78
2022/05/13 02:38:25;;;;;;;6.63;6.00;;;;;;;;;;12546920;28;20045;-77
2022/05/13 02:44:27;;;;;;;5.40;4.80;;;;;;;;;;12544970;28;20044;-77
2022/05/13 02:50:28;;;;;;;4.68;3.60;;;;;;;;;;12544209;28;20035;-78
2022/05/13 02:56:30;;;;;;;6.07;5.47;;;;;;;;;;12545216;28;20040;-78
2022/05/13 03:02:33;;;;;;;5.25;4.68;;;;;;;;;;12543770;28;20044;-77
2022/05/13 03:08:35;;;;;;;5.38;4.88;;;;;;;;;;12543765;28;20052;-77
2022/05/13 03:14:37;;;;;;;5.20;4.75;;;;;;;;;;12543218;28;20064;-78
2022/05/13 03:20:38;;;;;;;5.47;4.60;;;;;;;;;;12544390;28;20037;-77
2022/05/13 03:26:40;;;;;;;6.43;4.85;;;;;;;;;;12543091;28;20282;-78
2022/05/13 03:32:42;;;;;;;6.90;5.50;;;;;;;;;;12544066;28;20056;-77
2022/05/13 03:38:44;;;;;;;7.40;6.68;;;;;;;;;;12543523;28;20044;-77
2022/05/13 03:44:45;;;;;;;7.40;6.43;;;;;;;;;;12542754;28;20508;-76
2022/05/13 03:50:47;;;;;;;3.10;2.83;;;;;;;;;;12526077;28;20033;-77
2022/05/13 03:56:49;;;;;;;6.10;5.53;;;;;;;;;;12545121;28;20052;-77
2022/05/13 04:02:51;;;;;;;6.68;5.90;;;;;;;;;;12553303;28;20041;-77
2022/05/13 04:08:59;;;;;;;6.83;6.17;;;;;;;;;;12553184;28;20044;-76
2022/05/13 04:21:22;;;;;;;8.85;7.95;;;;;;;;;;12551305;28;20044;-76
2022/05/13 04:27:24;;;;;;;8.57;7.72;;;;;;;;;;12534458;28;20036;-77
2022/05/13 04:33:26;;;;;;;8.03;7.23;;;;;;;;;;12552705;28;20520;-77
2022/05/13 04:39:28;;;;;;;;;;;;;;;;;;12534694;28;20299;-77
2022/05/13 04:45:31;;;;;;;6.13;5.50;;;;;;;;;;12550526;28;19912;-77
2022/05/13 04:51:33;;;;;;;8.07;7.25;;;;;;;;;;12549353;28;20482;-77
2022/05/13 04:57:34;;;;;;;9.07;7.97;;;;;;;;;;12550641;28;20033;-77
2022/05/13 05:03:36;;;;;;;9.97;8.27;;;;;;;;;;12550562;28;20036;-78
2022/05/13 05:09:39;;;;;;;8.85;7.68;;;;;;;;;;12534549;28;20294;-77
2022/05/13 05:15:40;;;;;;;10.88;9.75;;;;;;;;;;12554842;28;20037;-77
2022/05/13 05:21:42;;;;;;;12.40;11.13;;;;;;;;;;12531616;28;20045;-77
2022/05/13 05:27:44;;;;;;;9.93;8.97;;;;;;;;;;12549697;28;20033;-77
2022/05/13 05:33:45;;;;;;;11.13;9.97;;;;;;;;;;12547259;28;20044;-77
2022/05/13 05:39:47;;;;;;;10.73;9.70;;;;;;;;;;12546560;28;20040;-76
2022/05/13 05:45:49;;;;;;;10.53;9.47;;;;;;;;;;12514828;28;20298;-76
2022/05/13 05:51:50;;;;;;;8.70;7.55;;;;;;;;;;12542747;28;20033;-76
2022/05/13 05:57:57;;;;;;;7.93;7.13;;;;;;;;;;12523617;28;20508;-76
2022/05/13 06:03:59;;;;;;;7.65;6.95;;;;;;;;;;12520468;28;20386;-75
2022/05/13 06:10:00;;;;;;;8.57;7.80;;;;;;;;;;12509089;28;20051;-75
2022/05/13 06:16:03;;;;;;;7.93;7.13;;;;;;;;;;12497229;28;20034;-76
2022/05/13 06:22:04;;;;;;;;;;;;;;;;;;12482392;28;20045;-77
2022/05/13 06:28:07;;;;;;;8.57;7.78;;;;;;;;;;12477951;28;20326;-77
2022/05/13 06:34:08;;;;;;;10.23;9.23;;;;;;;;;;12483073;28;20021;-77
2022/05/13 06:40:11;;;;;;;9.63;8.73;;;;;;;;;;12448643;28;20064;-77
2022/05/13 06:46:13;;;;;;;9.65;8.70;;;;;;;;;;12482629;28;20041;-78
2022/05/13 06:52:14;;;;;;;11.20;9.65;;;;;;;;;;12480519;28;20026;-77
2022/05/13 06:58:16;;;;;;;10.30;8.35;;;;;;;;;;12489517;28;20041;-77
2022/05/13 07:04:19;;;;;;;9.35;7.57;;;;;;;;;;12482133;28;20033;-75
2022/05/13 07:10:21;;;;;;;7.35;6.70;;;;;;;;;;12481898;28;20064;-76
2022/05/13 07:16:23;;;;;;;7.35;6.55;;;;;;;;;;12517053;28;20033;-77
2022/05/13 07:22:24;;;;;;;5.28;4.72;;;;;;;;;;12490933;28;20041;-77
2022/05/13 07:28:27;;;;;;;5.03;4.60;;;;;;;;;;12501954;28;20489;-83
2022/05/13 07:34:29;;;;;;;6.13;5.53;;;;;;;;;;12510083;28;20393;-81
2022/05/13 07:46:52;;;;;;;9.27;6.82;;;;;;;;;;12543014;28;19912;-80
2022/05/13 07:52:53;;;;;;;8.15;7.35;;;;;;;;;;12529093;28;20032;-80
2022/05/13 07:58:57;;;;;;;7.82;5.53;;;;;;;;;;12522929;28;20036;-78
2022/05/13 08:04:59;;;;;;;6.43;4.80;;;;;;;;;;12495059;28;20025;-76
2022/05/13 08:11:02;;;;;;;7.10;5.25;;;;;;;;;;12513118;28;20413;-78
2022/05/13 08:17:04;;;;;;;7.57;4.72;;;;;;;;;;12529765;28;20470;-77
2022/05/13 08:23:06;;;;;;;5.13;4.50;;;;;;;;;;12532785;28;20040;-75
2022/05/13 08:29:07;;;;;;;6.35;5.75;;;;;;;;;;12536590;28;20021;-79
2022/05/13 08:35:09;;;;;;;;;;;;;;;;;;12502454;28;20037;-77
2022/05/13 08:41:11;;;;;;;8.10;6.67;;;;;;;;;;12521933;28;19920;-78
2022/05/13 08:47:26;;;;;;;3.90;3.47;;;;;;;;;;12523104;28;20041;-78
2022/05/13 08:53:32;;;;;;;6.10;5.53;;;;;;;;;;12537045;28;20029;-78
2022/05/13 08:59:44;;;;;;;9.82;4.13;;;;;;;;;;12531244;28;20398;-77
2022/05/13 09:05:46;;;;;;;;;;;;;;;;;;12527430;28;20025;-79
2022/05/13 09:12:07;;;;;;;4.57;3.10;;;;;;;;;;12515779;28;19921;-77
2022/05/13 09:18:10;;;;;;;4.00;3.40;;;;;;;;;;12536309;28;20032;-78
2022/05/13 09:24:12;;;;;;;4.07;3.67;;;;;;;;;;12542542;28;20043;-78
2022/05/13 09:30:18;;;;;;;4.18;3.17;;;;;;;;;;12538749;28;20029;-81
2022/05/13 09:36:21;;;;;;;7.45;3.17;;;;;;;;;;12531649;28;20044;-83
2022/05/13 09:42:27;;;;;;;2.35;2.15;;;;;;;;;;12524429;28;20049;-84
2022/05/13 09:48:29;;;;;;;2.45;2.10;;;;;;;;;;12534350;28;20051;-80
2022/05/13 09:54:31;;;;;;;;;;;;;;;;;;12538490;28;20116;-80
2022/05/13 10:00:33;;;;;;;;;;;;;;;;;;12501096;28;19916;-83
2022/05/13 10:06:36;;;;;;;4.33;3.93;;;;;;;;;;12543953;28;19913;-83
2022/05/13 10:19:00;;;;;;;2.40;2.17;;;;;;;;;;12540951;28;20045;-83
2022/05/13 10:25:03;;;;;;;;;;;;;;;;;;12532134;28;20543;-83
2022/05/13 10:31:08;;;;;;;3.85;3.45;;;;;;;;;;12518946;28;20006;-83
2022/05/13 10:37:25;;;;;;;3.65;3.15;;;;;;;;;;12542015;28;20029;-84
2022/05/13 10:43:36;;;;;;;3.05;2.80;;;;;;;;;;12534361;28;20049;-83
2022/05/13 10:49:40;;;;;;;3.70;3.40;;;;;;;;;;12523377;28;20029;-83
2022/05/13 10:55:45;;;;;;;4.25;3.25;;;;;;;;;;12522319;28;20032;-83
2022/05/13 11:02:00;;;;;;;3.00;2.45;;;;;;;;;;12553914;28;20511;-83
2022/05/13 11:08:09;;;;;;;4.20;3.17;;;;;;;;;;12532684;28;20572;-83
2022/05/13 11:14:32;;;;;;;4.00;3.60;;;;;;;;;;12516644;28;20036;-82
2022/05/13 11:20:44;;;;;;;3.17;2.83;;;;;;;;;;12534298;28;20041;-83
2022/05/13 11:27:09;;;;;;;3.85;2.70;;;;;;;;;;12533224;28;20032;-81
2022/05/13 11:33:25;;;;;;;3.20;2.90;;;;;;;;;;12517480;28;20040;-80
2022/05/13 11:39:45;;;;;;;5.47;2.78;;;;;;;;;;12523288;28;20445;-80
2022/05/13 11:45:47;;;;;;;3.85;2.63;;;;;;;;;;12508800;28;20037;-77
2022/05/13 11:51:49;;;;;;;6.25;3.20;;;;;;;;;;12543552;28;20040;-80
2022/05/13 11:57:52;;;;;;;4.38;3.30;;;;;;;;;;12543381;28;20040;-79
2022/05/13 12:04:12;;;;;;;5.88;4.47;;;;;;;;;;12541748;28;20391;-78
2022/05/13 12:10:14;;;;;;;10.55;3.63;;;;;;;;;;12525400;28;20045;-77
2022/05/13 12:16:20;;;;;;;3.33;3.03;;;;;;;;;;12541997;28;20048;-78
2022/05/13 12:22:31;;;;;;;4.65;3.03;;;;;;;;;;12515519;28;20494;-77
2022/05/13 12:28:33;;;;;;;2.90;2.33;;;;;;;;;;12501245;28;20048;-76
2022/05/13 12:40:59;;;;;;;13.23;3.50;;;;;;;;;;12501844;28;20057;-76
2022/05/13 12:47:13;;;;;;;7.55;3.50;;;;;;;;;;12501570;28;20040;-77
2022/05/13 12:53:30;;;;;;;6.00;3.80;;;;;;;;;;12502474;28;20037;-79
2022/05/13 12:59:35;;;;;;;39.63;6.47;;;;;;;;;;12499729;28;20383;-77
2022/05/13 13:05:38;;;;;;;5.28;2.63;;;;;;;;;;12500669;28;20033;-77
2022/05/13 13:11:54;;;;;;;2.95;2.53;;;;;;;;;;12500856;28;20061;-77
2022/05/13 13:17:57;;;;;;;3.60;2.60;;;;;;;;;;12500165;28;20422;-77
2022/05/13 13:24:00;;;;;;;3.05;2.30;;;;;;;;;;12498065;28;20049;-78
2022/05/13 13:30:02;;;;;;;5.20;2.55;;;;;;;;;;12499162;28;20033;-77
2022/05/13 13:36:05;;;;;;;2.58;2.38;;;;;;;;;;12482051;28;20040;-77
2022/05/13 13:42:15;;;;;;;2.65;2.45;;;;;;;;;;12481337;28;20053;-78
2022/05/13 13:48:20;;;;;;;3.10;2.78;;;;;;;;;;12464822;28;20060;-78
2022/05/13 13:54:26;;;;;;;30.38;5.15;;;;;;;;;;12480951;28;20029;-78
2022/05/13 14:00:36;;;;;;;4.30;2.85;;;;;;;;;;12498400;28;20049;-76
2022/05/13 14:06:39;;;;;;;3.05;2.70;;;;;;;;;;12496586;28;20494;-76
2022/05/13 14:12:42;;;;;;;2.40;2.20;;;;;;;;;;12496793;28;20379;-76
2022/05/13 14:18:44;;;;;;;2.38;2.20;;;;;;;;;;12497490;28;20038;-76
2022/05/13 14:24:48;;;;;;;2.60;2.25;;;;;;;;;;12463449;28;20044;-77
2022/05/13 14:30:52;;;;;;;3.22;2.40;;;;;;;;;;12478886;28;20034;-77
2022/05/13 14:37:02;;;;;;;3.17;2.90;;;;;;;;;;12496768;28;20041;-77
2022/05/13 14:43:06;;;;;;;4.05;3.70;;;;;;;;;;12493744;28;20506;-77
2022/05/13 14:49:26;;;;;;;3.50;3.17;;;;;;;;;;12494742;28;20037;-77
2022/05/13 14:55:30;;;;;;;2.90;2.63;;;;;;;;;;12494551;28;20037;-77
2022/05/13 15:01:42;;;;;;;3.65;2.50;;;;;;;;;;12494949;28;20060;-78
2022/05/13 15:07:45;;;;;;;2.30;2.10;;;;;;;;;;12493831;28;20506;-78
2022/05/13 15:13:47;;;;;;;3.05;2.47;;;;;;;;;;12477342;28;20044;-75
2022/05/13 15:19:49;;;;;;;4.10;3.58;;;;;;;;;;12494927;28;20041;-76
2022/05/13 15:25:51;;;;;;;4.00;3.38;;;;;;;;;;12494722;28;20402;-76
2022/05/13 15:31:53;;;;;;;3.33;3.05;;;;;;;;;;12493397;28;20044;-76
2022/05/13 15:37:57;;;;;;;3.40;2.70;;;;;;;;;;12493755;28;20042;-77
2022/05/13 15:43:59;;;;;;;4.60;2.92;;;;;;;;;;12494311;28;20491;-76
2022/05/13 15:56:26;;;;;;;2.83;2.50;;;;;;;;;;12502814;28;20037;-77
2022/05/13 16:02:28;;;;;;;3.92;2.70;;;;;;;;;;12503508;28;20042;-77
2022/05/13 16:08:30;;;;;;;3.05;2.47;;;;;;;;;;12502092;28;20049;-77
2022/05/13 16:14:32;;;;;;;1.95;1.75;;;;;;;;;;12502248;28;20042;-77
2022/05/13 16:20:34;;;;;;;4.60;2.20;;;;;;;;;;12503005;28;20046;-77
2022/05/13 16:26:36;;;;;;;2.10;1.83;;;;;;;;;;12502447;28;20044;-77
2022/05/13 16:32:38;;;;;;;2.63;2.20;;;;;;;;;;12502496;28;20028;-77
2022/05/13 16:38:40;;;;;;;2.85;2.40;;;;;;;;;;12502549;28;20386;-77
2022/05/13 16:44:43;;;;;;;3.80;2.75;;;;;;;;;;12501295;28;20038;-77
2022/05/13 16:50:44;;;;;;;2.22;2.03;;;;;;;;;;12501731;28;20109;-77
2022/05/13 16:56:48;;;;;;;5.85;2.88;;;;;;;;;;12499783;28;20512;-77
2022/05/13 17:02:57;;;;;;;4.20;2.65;;;;;;;;;;12500056;28;20045;-77
2022/05/13 17:21:42;;;;;;;3.70;3.00;;;;;;;;;;12498936;28;20495;-78
2022/05/13 17:27:48;;;;;;;4.38;3.30;;;;;;;;;;12466088;28;20068;-77
2022/05/13 17:33:50;;;;;;;3.78;3.08;;;;;;;;;;12481943;28;20517;-77
2022/05/13 17:39:52;;;;;;;3.47;3.08;;;;;;;;;;12465697;28;20049;-77
2022/05/13 17:45:55;;;;;;;3.17;2.88;;;;;;;;;;12497600;28;20044;-77
2022/05/13 17:52:00;;;;;;;2.90;2.70;;;;;;;;;;12480925;28;20430;-77
2022/05/13 17:58:01;;;;;;;2.88;2.67;;;;;;;;;;12496798;28;20038;-77
2022/05/13 18:04:04;;;;;;;5.43;2.80;;;;;;;;;;12498950;28;20056;-76
2022/05/13 18:10:06;;;;;;;3.42;2.90;;;;;;;;;;12498526;28;20064;-77
2022/05/13 18:16:09;;;;;;;8.25;3.33;;;;;;;;;;12497473;28;20029;-77
2022/05/13 18:22:12;;;;;;;3.55;3.25;;;;;;;;;;12497392;28;20384;-78
2022/05/13 18:28:14;;;;;;;3.53;3.00;;;;;;;;;;12479629;28;20036;-77
2022/05/13 18:34:18;;;;;;;3.90;3.42;;;;;;;;;;12479221;28;20028;-77
2022/05/13 18:46:44;;;;;;;3.15;2.70;;;;;;;;;;12494769;28;20049;-77
2022/05/13 18:52:46;;;;;;;4.95;3.88;;;;;;;;;;12478276;28;20053;-77
2022/05/13 18:58:48;;;;;;;3.70;3.03;;;;;;;;;;12477960;28;20501;-77
2022/05/13 19:04:50;;;;;;;3.53;3.22;;;;;;;;;;12461820;28;20045;-77
2022/05/13 19:10:53;;;;;;;5.22;4.50;;;;;;;;;;12495877;28;20049;-76
2022/05/13 19:16:55;;;;;;;5.07;4.68;;;;;;;;;;12495042;28;20041;-77
2022/05/13 19:22:56;;;;;;;5.25;4.05;;;;;;;;;;12460848;28;20403;-78
2022/05/13 19:29:01;;;;;;;;;;;;;;;;;;12476873;28;20037;-77
2022/05/13 19:35:03;;;;;;;4.88;4.40;;;;;;;;;;12493064;28;19928;-77
2022/05/13 19:41:06;;;;;;;4.13;3.72;;;;;;;;;;12494354;28;20053;-77
2022/05/13 19:47:09;;;;;;;5.25;4.32;;;;;;;;;;12476905;28;20037;-77
2022/05/13 19:53:11;;;;;;;3.33;3.13;;;;;;;;;;12460706;28;20387;-77
2022/05/13 19:59:14;;;;;;;34.53;11.75;;;;;;;;;;12494850;28;20490;-77
2022/05/13 20:11:37;;;;;;;12.18;6.30;;;;;;;;;;12494138;28;20061;-77
2022/05/13 20:17:39;;;;;;;;;;;;;;;;;;12459987;28;20474;-76
2022/05/13 20:23:42;;;;;;;7.90;3.20;;;;;;;;;;12475801;28;19924;-77
2022/05/13 20:29:44;;;;;;;6.60;3.38;;;;;;;;;;12492058;28;20033;-77
2022/05/13 20:35:46;;;;;;;4.40;2.42;;;;;;;;;;12475840;28;20470;-77
2022/05/13 20:41:47;;;;;;;5.70;2.85;;;;;;;;;;12465102;28;20057;-77
2022/05/13 20:47:49;;;;;;;3.42;2.22;;;;;;;;;;12502045;28;20033;-77
2022/05/13 20:53:51;;;;;;;3.22;2.80;;;;;;;;;;12484150;28;20538;-77
2022/05/13 20:59:55;;;;;;;5.65;5.05;;;;;;;;;;12501572;28;20060;-77
2022/05/13 21:05:58;;;;;;;5.30;4.80;;;;;;;;;;12501349;28;20025;-78
2022/05/13 21:12:00;;;;;;;6.35;4.88;;;;;;;;;;12499976;28;20057;-77
2022/05/13 21:18:03;;;;;;;;;;;;;;;;;;12500654;28;20045;-77
2022/05/13 21:24:04;;;;;;;;;;;;;;;;;;12500765;28;19924;-78
2022/05/13 21:30:06;;;;;;;3.37;3.07;;;;;;;;;;12498836;28;19916;-77
2022/05/13 21:42:29;;;;;;;4.55;4.07;;;;;;;;;;12498280;28;20057;-77
2022/05/13 21:48:31;;;;;;;5.65;4.13;;;;;;;;;;12481842;28;20034;-77
2022/05/13 21:54:32;;;;;;;;;;;;;;;;;;12481729;28;20033;-78
2022/05/13 22:00:34;;;;;;;8.20;6.05;;;;;;;;;;12498468;28;19940;-77
2022/05/13 22:06:36;;;;;;;7.43;6.68;;;;;;;;;;12497356;28;20036;-77
2022/05/13 22:12:38;;;;;;;6.85;5.85;;;;;;;;;;12496958;28;20053;-77
2022/05/13 22:18:40;;;;;;;9.43;8.20;;;;;;;;;;12496615;28;20029;-77
2022/05/13 22:24:43;;;;;;;6.07;5.57;;;;;;;;;;12479919;28;20041;-76
2022/05/13 22:30:45;;;;;;;8.45;7.18;;;;;;;;;;12479611;28;20045;-76
2022/05/13 22:36:47;;;;;;;6.45;5.25;;;;;;;;;;12480011;28;20033;-76
2022/05/13 22:42:48;;;;;;;5.22;4.72;;;;;;;;;;12496686;28;20398;-77
2022/05/13 22:48:50;;;;;;;5.80;4.50;;;;;;;;;;12496285;28;20510;-76
2022/05/13 22:54:53;;;;;;;4.15;3.63;;;;;;;;;;12496240;28;20406;-76
2022/05/13 23:00:55;;;;;;;4.32;3.95;;;;;;;;;;12477438;28;20041;-77
2022/05/13 23:13:18;;;;;;;6.10;4.40;;;;;;;;;;12496187;28;20049;-77
2022/05/13 23:19:20;;;;;;;4.20;3.33;;;;;;;;;;12493749;28;20036;-76
2022/05/13 23:25:22;;;;;;;7.00;4.07;;;;;;;;;;12461193;28;20041;-77
2022/05/13 23:31:24;;;;;;;4.35;3.95;;;;;;;;;;12494896;28;20037;-77
2022/05/13 23:37:25;;;;;;;3.33;3.08;;;;;;;;;;12495139;28;20034;-77
2022/05/13 23:43:28;;;;;;;3.72;3.30;;;;;;;;;;12460779;28;20045;-77
2022/05/13 23:49:29;;;;;;;2.88;2.65;;;;;;;;;;12493493;28;20502;-77
